< < Back
Terminal Aerodrome Forecast


Current Version              Previous Versions:   1  2  3  4  5  6  7  8  9  

Terminal Aerodrome Forecast

066
FTUS42 KGSP 250531
TAFAVL
TAF
KAVL 250531Z 2506/2606 35003KT P6SM BKN250
      TEMPO 2509/2513 4SM BR
     FM251500 35008KT P6SM SCT060 BKN250 PROB30 2518/2522 -TSRA
      BKN060CB
     FM252300 35005KT P6SM SCT060 BKN250=

Latest METAR

068
SAUS70 KWBC 251700 RRI
MTRAVL
METAR KAVL 251654Z 35011G16KT 10SM FEW055 30/13 A3019 RMK AO2 SLP194
T03000133


USA.gov is the U.S. government's official web portal to all federal, state and local government web resources and services.